Time;durP1;ratioP1;P1;durP2;ratioP2;P2;SDS_P1;SDS_P2;PMS_P1;PMS_P2;Temp;Humidity;BMP_temperature;BMP_pressure;BME280_temperature;BME280_humidity;BME280_pressure;Samples;Min_cycle;Max_cycle;Signal;HPM_P1;HPM_P2
2022/11/12 00:01:31;;;;;;;55.23;35.20;;;;;;;6.78;90.48;101589.59;1752958;82;21177;-82
2022/11/12 00:04:56;;;;;;;55.92;34.27;;;;;;;6.76;90.88;101595.13;1752712;82;21173;-82
2022/11/12 00:08:20;;;;;;;57.60;33.15;;;;;;;6.81;90.73;101594.77;1753022;82;21208;-82
2022/11/12 00:11:44;;;;;;;52.25;31.33;;;;;;;6.46;91.43;101590.74;1751571;82;21180;-82
2022/11/12 00:15:01;;;;;;;46.88;27.17;;;;;;;6.44;92.54;101589.48;1736903;82;21223;-82
2022/11/12 00:18:11;;;;;;;50.20;31.95;;;;;;;6.56;92.65;101590.41;1753244;82;21194;-82
2022/11/12 00:21:33;;;;;;;56.45;31.55;;;;;;;6.54;92.59;101586.91;1695525;82;21213;-82
2022/11/12 00:24:57;;;;;;;54.08;30.40;;;;;;;6.59;92.67;101593.75;1716365;83;21268;-82
2022/11/12 00:28:21;;;;;;;48.00;29.92;;;;;;;6.66;92.30;101588.69;1716603;83;21181;-82
2022/11/12 00:31:46;;;;;;;52.23;29.60;;;;;;;6.74;92.17;101588.10;1690886;85;21204;-82
2022/11/12 00:35:11;;;;;;;47.03;27.42;;;;;;;6.80;91.83;101597.13;1692350;85;21251;-81
2022/11/12 00:38:38;;;;;;;58.38;35.65;;;;;;;6.84;91.63;101614.94;1692864;85;21193;-81
2022/11/12 00:42:00;;;;;;;57.08;33.63;;;;;;;6.82;91.95;101616.89;1692718;85;21212;-82
2022/11/12 00:45:24;;;;;;;58.02;33.08;;;;;;;6.83;91.72;101611.86;1692804;85;21841;-82
2022/11/12 00:48:48;;;;;;;47.67;27.73;;;;;;;6.79;91.75;101608.50;1692989;85;21204;-81
2022/11/12 00:52:11;;;;;;;48.00;30.10;;;;;;;6.82;91.81;101613.71;1691925;85;21232;-82
2022/11/12 00:55:34;;;;;;;44.25;28.30;;;;;;;6.79;91.91;101620.74;1693049;85;21200;-82
2022/11/12 00:58:58;;;;;;;43.33;25.50;;;;;;;6.74;92.31;101621.59;1692280;85;21188;-82
2022/11/12 01:02:22;;;;;;;37.55;21.80;;;;;;;6.77;92.36;101625.91;1693083;85;21241;-81
2022/11/12 01:05:48;;;;;;;34.88;21.85;;;;;;;6.91;92.33;101627.92;1692389;85;21247;-83
2022/11/12 01:09:11;;;;;;;41.28;24.40;;;;;;;7.10;91.36;101631.91;1693105;85;21177;-82
2022/11/12 01:12:37;;;;;;;44.90;26.30;;;;;;;7.13;91.20;101637.12;1692717;85;21243;-82
2022/11/12 01:16:00;;;;;;;45.78;26.10;;;;;;;7.24;90.87;101630.31;1692557;85;21205;-82
2022/11/12 01:19:17;;;;;;;44.30;26.12;;;;;;;7.14;91.06;101636.98;1692375;85;21573;-83
2022/11/12 01:22:40;;;;;;;46.10;27.95;;;;;;;7.21;90.96;101627.86;1727186;81;21212;-82
2022/11/12 01:26:04;;;;;;;44.10;27.10;;;;;;;7.10;91.44;101625.11;1770596;81;21248;-82
2022/11/12 01:29:20;;;;;;;48.52;28.80;;;;;;;7.13;91.91;101624.88;1770683;81;21189;-82
2022/11/12 01:32:31;;;;;;;46.98;29.05;;;;;;;7.22;91.43;101623.28;1769596;81;21275;-82
2022/11/12 01:35:55;;;;;;;48.48;28.52;;;;;;;7.22;91.32;101623.28;1769558;81;21204;-82
2022/11/12 01:39:18;;;;;;;45.92;26.60;;;;;;;7.00;92.51;101611.86;1770963;81;21731;-82
2022/11/12 01:42:41;;;;;;;42.50;25.15;;;;;;;7.33;91.92;101613.74;1771015;81;21193;-82
2022/11/12 01:46:05;;;;;;;44.27;25.62;;;;;;;7.28;91.45;101609.17;1771122;81;21177;-82
2022/11/12 01:49:36;;;;;;;46.95;27.35;;;;;;;7.27;91.77;101605.58;1771050;81;21185;-82
2022/11/12 01:53:07;;;;;;;47.43;27.45;;;;;;;7.19;92.03;101610.77;1769471;81;21911;-83
2022/11/12 01:56:30;;;;;;;50.88;29.05;;;;;;;7.40;91.63;101617.72;1771010;81;21221;-82
2022/11/12 01:59:55;;;;;;;52.05;29.05;;;;;;;7.51;91.20;101604.59;1770966;81;21184;-83
2022/11/12 02:03:23;;;;;;;56.80;28.70;;;;;;;7.53;90.77;101610.30;1771156;81;21236;-83
2022/11/12 02:06:47;;;;;;;54.70;30.30;;;;;;;7.48;91.15;101601.64;1770067;81;21696;-82
2022/11/12 02:10:13;;;;;;;53.50;30.02;;;;;;;7.55;91.54;101597.91;1771072;81;21474;-83
2022/11/12 02:17:17;;;;;;;51.95;29.92;;;;;;;7.65;91.18;101601.10;1760938;81;21184;-82
2022/11/12 02:20:44;;;;;;;51.45;26.20;;;;;;;7.93;89.86;101602.41;1769635;81;21196;-81
2022/11/12 02:24:24;;;;;;;50.58;27.85;;;;;;;7.91;89.12;101602.19;1768441;80;21256;-81
2022/11/12 02:27:50;;;;;;;45.98;26.55;;;;;;;7.75;90.06;101600.34;1770911;81;21185;-82
2022/11/12 02:31:14;;;;;;;46.60;26.75;;;;;;;7.84;89.93;101604.53;1770732;81;21176;-81
2022/11/12 02:34:38;;;;;;;51.02;29.57;;;;;;;7.99;89.54;101598.80;1771085;81;21748;-82
2022/11/12 02:38:01;;;;;;;47.80;27.05;;;;;;;8.01;89.28;101600.91;1770056;81;21252;-81
2022/11/12 02:41:25;;;;;;;47.45;27.00;;;;;;;8.00;89.34;101607.33;1770784;81;21316;-82
2022/11/12 02:44:50;;;;;;;53.20;30.77;;;;;;;7.79;89.87;101598.60;1771060;81;21177;-81
2022/11/12 02:48:13;;;;;;;51.13;27.58;;;;;;;7.77;90.50;101605.19;1771000;81;21236;-81
2022/11/12 02:51:37;;;;;;;50.88;27.40;;;;;;;7.68;90.82;101602.72;1770648;81;21241;-81
2022/11/12 02:55:01;;;;;;;48.13;28.73;;;;;;;7.58;91.29;101608.06;1769545;81;21795;-81
2022/11/12 02:58:25;;;;;;;54.83;30.55;;;;;;;7.81;90.61;101608.00;1771033;81;21189;-81
2022/11/12 03:01:48;;;;;;;50.78;28.60;;;;;;;7.81;90.69;101611.62;1770636;81;21213;-81
2022/11/12 03:05:12;;;;;;;46.55;28.12;;;;;;;7.76;90.69;101616.55;1770637;81;21770;-81
2022/11/12 03:08:36;;;;;;;54.08;29.50;;;;;;;7.79;90.94;101629.92;1770514;81;21215;-82
2022/11/12 03:12:00;;;;;;;54.63;30.62;;;;;;;7.77;91.26;101627.84;1770529;81;21567;-82
2022/11/12 03:15:18;;;;;;;51.30;29.45;;;;;;;7.71;91.47;101633.77;1770998;81;21232;-83
2022/11/12 03:18:36;;;;;;;52.08;29.77;;;;;;;7.58;92.20;101630.34;1769589;81;21736;-82
2022/11/12 03:21:54;;;;;;;66.75;35.78;;;;;;;7.68;92.22;101635.40;1770738;81;21224;-82
2022/11/12 03:25:18;;;;;;;62.40;34.75;;;;;;;7.67;92.13;101632.31;1768418;80;21216;-83
2022/11/12 03:28:42;;;;;;;55.55;32.35;;;;;;;7.72;92.31;101632.80;1771135;81;21727;-82
2022/11/12 03:32:05;;;;;;;52.70;32.63;;;;;;;7.97;91.19;101618.51;1770707;81;21177;-82
2022/11/12 03:35:29;;;;;;;52.30;29.50;;;;;;;7.97;90.72;101617.14;1798865;79;21149;-82
2022/11/12 03:38:52;;;;;;;64.25;31.27;;;;;;;7.86;90.80;101618.05;1800420;79;21374;-82
2022/11/12 03:42:16;;;;;;;56.45;32.08;;;;;;;8.03;90.72;101624.80;1800962;79;21337;-82
2022/11/12 03:45:40;;;;;;;59.75;32.05;;;;;;;8.07;90.13;101623.05;1801553;79;21506;-82
2022/11/12 03:49:03;;;;;;;64.15;31.30;;;;;;;8.04;90.44;101619.22;1780372;79;21743;-83
2022/11/12 03:52:26;;;;;;;57.03;31.93;;;;;;;8.08;90.19;101619.83;1769543;81;21176;-82
2022/11/12 03:55:50;;;;;;;55.52;31.35;;;;;;;8.02;90.28;101617.63;1769879;81;21173;-83
2022/11/12 03:59:13;;;;;;;54.83;29.20;;;;;;;8.15;89.88;101616.97;1769949;81;21736;-83
2022/11/12 04:02:30;;;;;;;53.70;28.23;;;;;;;8.25;89.60;101624.73;1770226;79;21247;-82
2022/11/12 04:09:36;;;;;;;58.20;30.82;;;;;;;7.90;90.67;101630.39;1800841;79;21228;-82
2022/11/12 04:24:05;;;;;;;60.55;31.42;;;;;;;7.93;91.01;101643.27;1799737;79;21529;-83
2022/11/12 04:27:32;;;;;;;70.62;30.77;;;;;;;7.78;91.68;101648.63;1810800;79;21840;-82
2022/11/12 04:30:57;;;;;;;71.75;30.25;;;;;;;7.75;91.95;101648.88;1810752;79;21743;-83
2022/11/12 04:34:30;;;;;;;66.10;28.25;;;;;;;7.69;92.81;101650.24;1811173;79;21173;-83
2022/11/12 04:37:55;;;;;;;71.33;31.65;;;;;;;7.79;92.11;101651.72;1811217;79;21185;-82
2022/11/12 04:45:04;;;;;;;70.17;30.55;;;;;;;7.77;92.43;101654.22;1809667;79;21204;-82
2022/11/12 04:48:29;;;;;;;68.35;31.25;;;;;;;7.75;93.15;101654.81;1810991;79;21187;-82
2022/11/12 04:52:05;;;;;;;61.18;29.60;;;;;;;7.82;92.97;101651.48;1809313;79;21208;-82
2022/11/12 04:55:29;;;;;;;62.20;29.10;;;;;;;7.90;92.94;101655.81;1810439;79;21260;-81
2022/11/12 04:58:53;;;;;;;62.67;28.73;;;;;;;7.96;92.63;101660.37;1810087;79;21266;-82
2022/11/12 05:02:16;;;;;;;62.83;27.80;;;;;;;7.81;93.25;101659.28;1810493;79;21197;-81
2022/11/12 05:05:34;;;;;;;65.75;28.95;;;;;;;7.92;93.27;101663.34;1810221;79;21214;-81
2022/11/12 05:08:58;;;;;;;54.45;27.15;;;;;;;8.01;93.16;101654.05;1811265;79;21224;-81
2022/11/12 05:12:21;;;;;;;63.65;29.57;;;;;;;8.06;92.97;101657.25;1811433;79;21165;-81
2022/11/12 05:15:45;;;;;;;66.37;30.65;;;;;;;7.91;93.69;101659.39;1811661;79;21177;-83
2022/11/12 05:19:10;;;;;;;70.70;29.52;;;;;;;7.92;93.89;101663.34;1811481;79;21168;-82
2022/11/12 05:22:34;;;;;;;61.50;29.05;;;;;;;7.89;94.30;101666.31;1811033;79;21215;-82
2022/11/12 05:25:59;;;;;;;69.53;30.48;;;;;;;8.07;94.16;101670.75;1804795;79;21184;-82
2022/11/12 05:29:22;;;;;;;64.03;28.35;;;;;;;8.00;94.00;101678.18;1802265;79;21267;-82
2022/11/12 05:32:46;;;;;;;63.75;28.87;;;;;;;7.75;95.25;101676.61;1802790;79;21177;-82
2022/11/12 05:36:09;;;;;;;65.62;29.52;;;;;;;7.64;96.40;101681.58;1802463;79;21728;-82
2022/11/12 05:39:32;;;;;;;59.20;28.27;;;;;;;8.11;94.78;101678.18;1802613;79;21161;-81
2022/11/12 05:42:56;;;;;;;51.48;24.82;;;;;;;8.04;94.59;101681.02;1802625;79;21724;-81
2022/11/12 05:46:20;;;;;;;60.43;27.90;;;;;;;7.99;95.53;101682.77;1802610;79;21755;-81
2022/11/12 05:49:43;;;;;;;57.45;26.93;;;;;;;8.05;95.42;101688.23;1802723;79;22341;-82
2022/11/12 05:53:06;;;;;;;57.98;27.90;;;;;;;8.02;95.67;101683.02;1802769;79;21184;-82
2022/11/12 05:56:30;;;;;;;56.25;26.55;;;;;;;8.01;96.07;101700.38;1802674;79;21161;-82
2022/11/12 05:59:54;;;;;;;58.33;26.00;;;;;;;8.20;95.98;101703.31;1801308;79;21272;-82
2022/11/12 06:03:18;;;;;;;51.95;24.57;;;;;;;8.26;95.47;101702.79;1801170;79;21243;-82
2022/11/12 06:06:41;;;;;;;51.85;26.12;;;;;;;8.30;95.38;101689.28;1801238;79;21208;-82
2022/11/12 06:10:06;;;;;;;64.60;28.35;;;;;;;8.24;95.72;101691.16;1802637;79;21162;-83
2022/11/12 06:13:30;;;;;;;61.20;27.67;;;;;;;8.53;94.67;101697.43;1802496;79;21185;-82
2022/11/12 06:16:54;;;;;;;49.00;25.48;;;;;;;8.37;95.56;101701.42;1801331;79;21188;-82
2022/11/12 06:20:18;;;;;;;57.20;26.50;;;;;;;8.50;95.74;101698.54;1802635;79;21236;-83
2022/11/12 06:23:41;;;;;;;45.08;24.07;;;;;;;8.58;95.72;101701.99;1802340;79;21807;-82
2022/11/12 06:27:05;;;;;;;49.35;25.97;;;;;;;8.35;96.36;101693.84;1805228;79;21212;-83
2022/11/12 06:30:29;;;;;;;50.33;23.75;;;;;;;8.40;97.03;101698.95;1810504;79;21208;-82
2022/11/12 06:33:46;;;;;;;40.83;21.37;;;;;;;8.41;97.75;101704.77;1810991;79;21180;-81
2022/11/12 06:37:08;;;;;;;35.63;19.17;;;;;;;8.47;97.74;101705.63;1811126;79;21176;-81
2022/11/12 06:40:32;;;;;;;46.13;21.60;;;;;;;8.63;96.99;101714.23;1811422;79;21244;-81
2022/11/12 06:43:57;;;;;;;44.70;21.05;;;;;;;8.78;96.28;101709.84;1810907;79;21181;-81
2022/11/12 06:47:20;;;;;;;39.60;21.37;;;;;;;8.93;95.55;101705.29;1811137;79;21223;-82
2022/11/12 06:50:43;;;;;;;40.15;22.40;;;;;;;9.14;94.76;101714.02;1811054;79;21172;-81
2022/11/12 06:54:08;;;;;;;45.15;21.52;;;;;;;9.05;94.90;101706.62;1809418;79;21251;-82
2022/11/12 06:57:32;;;;;;;44.03;20.57;;;;;;;9.13;94.85;101701.37;1810810;79;21181;-81
2022/11/12 07:00:57;;;;;;;42.55;18.42;;;;;;;9.27;94.37;101701.50;1809924;79;22431;-82
2022/11/12 07:04:22;;;;;;;36.58;17.40;;;;;;;9.44;94.07;101703.12;1809298;79;21203;-82
2022/11/12 07:07:46;;;;;;;34.15;17.35;;;;;;;9.47;93.95;101704.23;1809861;79;21184;-83
2022/11/12 07:11:10;;;;;;;33.88;18.12;;;;;;;9.58;93.71;101697.81;1809825;79;21228;-83
2022/11/12 07:14:33;;;;;;;34.80;18.65;;;;;;;9.81;92.96;101694.39;1809607;79;21197;-82
2022/11/12 07:17:57;;;;;;;39.85;20.10;;;;;;;10.04;92.58;101691.45;1809834;79;21736;-83
2022/11/12 07:21:23;;;;;;;37.60;19.67;;;;;;;10.07;92.80;101691.16;1812690;79;21223;-83
2022/11/12 07:24:46;;;;;;;39.23;19.27;;;;;;;10.37;92.11;101692.50;1812367;79;21267;-82
2022/11/12 07:28:10;;;;;;;29.75;17.07;;;;;;;10.41;91.50;101683.01;1808532;79;21191;-82
2022/11/12 07:31:28;;;;;;;28.17;15.95;;;;;;;10.42;91.90;101672.92;1806205;79;21755;-82
2022/11/12 07:34:37;;;;;;;21.07;13.55;;;;;;;10.41;91.93;101669.33;1801321;79;21185;-82
2022/11/12 07:38:01;;;;;;;24.85;13.68;;;;;;;10.52;91.37;101674.30;1769811;81;21193;-82
2022/11/12 07:41:29;;;;;;;25.32;13.55;;;;;;;10.54;90.50;101676.38;1768798;81;21169;-82
2022/11/12 07:44:54;;;;;;;27.60;16.45;;;;;;;10.52;90.24;101685.25;1769378;81;21212;-81
2022/11/12 07:48:17;;;;;;;20.40;13.38;;;;;;;10.49;89.98;101685.91;1770241;81;21829;-81
2022/11/12 07:51:42;;;;;;;21.30;14.60;;;;;;;10.57;89.54;101676.10;1759254;81;21202;-82
2022/11/12 07:55:05;;;;;;;22.80;14.65;;;;;;;10.70;89.07;101675.32;1758673;81;21174;-81
2022/11/12 07:58:28;;;;;;;25.27;14.63;;;;;;;10.81;88.60;101662.84;1758730;81;21185;-82
2022/11/12 08:01:53;;;;;;;23.02;14.80;;;;;;;10.95;88.25;101669.75;1758265;81;21209;-82
2022/11/12 08:05:16;;;;;;;17.65;12.23;;;;;;;10.99;88.25;101671.19;1762666;81;21253;-82
2022/11/12 08:08:40;;;;;;;18.37;12.07;;;;;;;11.02;87.74;101668.68;1769967;81;21177;-82
2022/11/12 08:12:03;;;;;;;19.35;12.15;;;;;;;10.96;87.80;101676.47;1770336;81;21173;-82
2022/11/12 08:15:28;;;;;;;20.02;12.82;;;;;;;11.03;87.32;101675.88;1769554;81;21185;-81
2022/11/12 08:19:22;;;;;;;25.52;15.45;;;;;;;10.90;87.27;101667.95;1772220;81;21177;-81
2022/11/12 08:23:13;;;;;;;25.80;14.35;;;;;;;10.89;87.02;101671.20;1760881;81;21192;-83
2022/11/12 08:26:36;;;;;;;24.00;15.45;;;;;;;10.88;87.05;101658.53;1768660;81;21300;-82
2022/11/12 08:30:01;;;;;;;26.95;15.25;;;;;;;10.87;86.93;101655.45;1768478;81;21755;-83
2022/11/12 08:33:25;;;;;;;20.15;12.50;;;;;;;10.89;86.93;101649.30;1769569;81;21754;-81
2022/11/12 08:36:49;;;;;;;16.27;11.05;;;;;;;10.99;87.03;101657.50;1768574;81;21240;-82
2022/11/12 08:40:15;;;;;;;21.17;13.72;;;;;;;11.03;86.20;101655.34;1769937;81;21173;-82
2022/11/12 08:43:38;;;;;;;24.72;14.23;;;;;;;10.76;87.40;101659.69;1770051;81;21193;-82
2022/11/12 08:47:02;;;;;;;23.10;14.05;;;;;;;11.14;86.79;101654.66;1768361;81;21220;-82
2022/11/12 08:50:25;;;;;;;28.02;14.73;;;;;;;11.04;86.62;101662.54;1770091;81;21452;-82
2022/11/12 08:53:49;;;;;;;29.10;14.68;;;;;;;11.16;85.33;101655.90;1769884;81;21196;-83
2022/11/12 08:57:12;;;;;;;30.68;15.48;;;;;;;11.08;85.41;101663.98;1769826;81;21153;-82
2022/11/12 09:00:49;;;;;;;30.68;15.03;;;;;;;11.19;85.27;101669.28;1769869;81;21169;-83
2022/11/12 09:04:13;;;;;;;32.13;16.20;;;;;;;11.09;84.86;101668.44;1770052;81;21201;-82
2022/11/12 09:07:28;;;;;;;28.00;15.03;;;;;;;10.82;85.21;101669.18;1770329;81;21565;-82
2022/11/12 09:10:40;;;;;;;32.55;15.98;;;;;;;10.70;85.35;101667.97;1771130;81;21196;-82
2022/11/12 09:14:05;;;;;;;32.73;16.32;;;;;;;10.42;86.06;101665.58;1770759;81;21189;-82
2022/11/12 09:17:31;;;;;;;31.00;16.37;;;;;;;10.65;86.40;101665.31;1770586;81;21791;-82
2022/11/12 09:20:55;;;;;;;25.20;14.38;;;;;;;10.92;84.96;101668.70;1778427;79;21209;-81
2022/11/12 09:24:19;;;;;;;25.77;13.45;;;;;;;10.59;85.04;101675.47;1802384;79;21161;-81
2022/11/12 09:27:43;;;;;;;26.05;15.03;;;;;;;10.29;86.47;101669.08;1802640;79;21860;-81
2022/11/12 09:31:07;;;;;;;23.00;12.70;;;;;;;10.69;85.25;101660.78;1802632;79;21177;-81
2022/11/12 09:34:30;;;;;;;20.95;12.25;;;;;;;10.73;85.23;101653.16;1802793;79;21161;-81
2022/11/12 09:37:53;;;;;;;22.95;12.20;;;;;;;10.60;85.29;101661.64;1802195;79;21228;-81
2022/11/12 09:41:31;;;;;;;24.35;12.95;;;;;;;10.51;85.55;101660.27;1802654;79;21247;-82
2022/11/12 09:45:20;;;;;;;27.17;14.83;;;;;;;10.34;85.55;101661.31;1802395;79;21189;-82
2022/11/12 09:48:49;;;;;;;26.20;14.03;;;;;;;10.28;86.48;101664.63;1800946;79;21205;-81
2022/11/12 09:52:22;;;;;;;30.65;14.75;;;;;;;10.41;86.69;101657.02;1801919;79;21192;-82
2022/11/12 09:55:52;;;;;;;23.87;12.73;;;;;;;10.61;86.05;101652.42;1802836;79;21176;-82
2022/11/12 09:59:10;;;;;;;21.95;11.57;;;;;;;10.57;85.96;101647.37;1803106;79;21162;-82
2022/11/12 10:02:39;;;;;;;24.00;13.43;;;;;;;10.41;86.15;101650.19;1802749;78;21189;-82
2022/11/12 10:06:09;;;;;;;23.52;13.18;;;;;;;10.37;86.79;101651.47;1801103;79;21201;-82
2022/11/12 10:09:44;;;;;;;19.57;11.48;;;;;;;10.45;86.80;101647.53;1802944;79;21221;-82
2022/11/12 10:13:41;;;;;;;22.80;11.78;;;;;;;10.55;86.63;101647.53;1802837;79;21173;-81
2022/11/12 10:17:27;;;;;;;19.57;11.33;;;;;;;10.62;86.23;101646.44;1801129;79;21170;-81
2022/11/12 10:20:56;;;;;;;17.92;11.30;;;;;;;10.64;86.06;101640.34;1801302;79;21205;-81
2022/11/12 10:24:19;;;;;;;16.97;10.85;;;;;;;10.74;85.74;101637.08;1802780;79;21181;-82
2022/11/12 10:27:47;;;;;;;18.92;10.53;;;;;;;10.61;85.92;101626.42;1801574;79;21866;-82
2022/11/12 10:31:23;;;;;;;20.48;11.68;;;;;;;10.81;85.27;101623.66;1805879;79;21264;-81
2022/11/12 10:34:48;;;;;;;17.65;10.23;;;;;;;10.89;85.18;101626.03;1808984;79;21212;-81
2022/11/12 10:38:14;;;;;;;19.37;11.00;;;;;;;10.96;85.28;101628.56;1810256;79;21341;-81
2022/11/12 10:41:32;;;;;;;18.15;10.65;;;;;;;11.14;84.63;101630.02;1810425;79;21247;-81
2022/11/12 10:44:56;;;;;;;16.37;9.53;;;;;;;11.30;83.74;101627.18;1810538;79;21181;-82
2022/11/12 10:48:36;;;;;;;12.63;8.63;;;;;;;11.23;83.89;101631.86;1810139;78;21224;-81
2022/11/12 10:52:04;;;;;;;11.83;7.53;;;;;;;11.21;84.11;101627.56;1810886;79;21157;-82
2022/11/12 10:55:36;;;;;;;13.68;9.15;;;;;;;11.31;83.16;101617.95;1811041;79;21189;-81
2022/11/12 10:59:27;;;;;;;13.78;9.40;;;;;;;11.14;82.81;101619.05;1811147;79;21173;-82
2022/11/12 11:02:59;;;;;;;17.90;9.18;;;;;;;11.29;82.63;101615.33;1811128;79;21169;-82
2022/11/12 11:06:28;;;;;;;17.52;10.10;;;;;;;11.28;82.12;101598.55;1809905;79;21212;-81
2022/11/12 11:10:02;;;;;;;13.58;9.58;;;;;;;11.31;82.34;101595.52;1810675;79;21774;-82
2022/11/12 11:13:27;;;;;;;17.10;10.78;;;;;;;11.51;81.85;101602.63;1810923;79;21807;-82
2022/11/12 11:17:07;;;;;;;16.57;10.30;;;;;;;11.54;81.66;101606.10;1810579;79;21188;-83
2022/11/12 11:20:43;;;;;;;14.80;9.53;;;;;;;11.56;81.57;101610.91;1808979;79;21208;-82
2022/11/12 11:24:38;;;;;;;14.23;8.55;;;;;;;11.68;81.06;101611.08;1811071;79;22408;-82
2022/11/12 11:28:28;;;;;;;15.60;9.60;;;;;;;11.58;80.09;101622.09;1809435;79;21272;-82
2022/11/12 11:32:00;;;;;;;13.15;8.43;;;;;;;11.62;79.61;101624.89;1687373;83;21257;-81
2022/11/12 11:35:54;;;;;;;12.18;8.90;;;;;;;11.63;79.26;101614.80;1768342;81;21236;-82
2022/11/12 11:39:29;;;;;;;13.78;8.53;;;;;;;11.55;79.00;101627.01;1769620;81;22313;-81
2022/11/12 11:43:33;;;;;;;13.72;9.68;;;;;;;11.46;79.42;101626.03;1769872;81;21802;-80
2022/11/12 11:47:20;;;;;;;13.43;9.40;;;;;;;11.43;79.44;101618.98;1769013;81;21416;-82
2022/11/12 11:50:50;;;;;;;11.05;8.40;;;;;;;11.49;79.27;101610.16;1768977;81;21280;-81
2022/11/12 11:54:33;;;;;;;13.55;9.38;;;;;;;11.39;79.04;101602.49;1770450;81;21212;-82
2022/11/12 11:58:26;;;;;;;12.47;9.38;;;;;;;11.38;79.69;101593.89;1769715;81;21494;-82
2022/11/12 12:02:07;;;;;;;13.72;8.78;;;;;;;11.39;79.65;101595.64;1770416;81;21185;-81
2022/11/12 12:05:58;;;;;;;14.07;10.35;;;;;;;11.57;79.22;101594.31;1769401;81;21177;-82
2022/11/12 12:09:41;;;;;;;11.35;9.23;;;;;;;11.09;79.69;101594.50;1768074;81;21180;-83
2022/11/12 12:13:30;;;;;;;17.07;11.60;;;;;;;10.86;80.91;101586.63;1767931;81;21717;-83
2022/11/12 12:17:26;;;;;;;16.05;11.10;;;;;;;10.78;81.01;101583.78;1705935;81;21173;-82
2022/11/12 12:21:07;;;;;;;16.32;10.30;;;;;;;10.66;82.30;101582.20;1768162;81;21196;-82
2022/11/12 12:24:40;;;;;;;14.00;11.20;;;;;;;11.00;81.08;101585.30;1753977;81;21181;-82
2022/11/12 12:28:34;;;;;;;14.83;11.43;;;;;;;10.96;81.03;101578.39;1735911;82;21213;-82
2022/11/12 12:31:58;;;;;;;16.57;12.20;;;;;;;10.92;80.94;101584.69;1676981;83;21547;-82
2022/11/12 12:35:41;;;;;;;17.12;12.63;;;;;;;10.96;80.97;101571.55;1719164;83;21250;-82
2022/11/12 12:39:25;;;;;;;16.55;11.22;;;;;;;10.94;80.73;101559.90;1721661;82;21205;-82
2022/11/12 12:43:17;;;;;;;16.65;12.13;;;;;;;11.03;80.87;101556.27;1740235;82;21744;-82
2022/11/12 12:46:49;;;;;;;13.13;9.53;;;;;;;10.98;81.16;101555.34;1740629;82;21220;-82
2022/11/12 12:50:16;;;;;;;16.40;11.60;;;;;;;10.88;81.29;101548.19;1739442;82;21275;-82
2022/11/12 12:53:41;;;;;;;14.13;11.55;;;;;;;10.92;81.03;101555.09;1741276;82;21197;-82
2022/11/12 12:56:58;;;;;;;18.17;12.63;;;;;;;11.02;80.54;101555.06;1741086;82;21197;-82
2022/11/12 13:00:44;;;;;;;23.98;12.13;;;;;;;10.97;80.53;101560.47;1741180;82;21185;-82
2022/11/12 13:04:14;;;;;;;16.48;13.38;;;;;;;10.98;80.47;101558.08;1741063;82;21197;-81
2022/11/12 13:07:54;;;;;;;17.27;13.18;;;;;;;10.85;80.89;101553.43;1739377;82;21244;-81
2022/11/12 13:12:20;;;;;;;19.07;13.65;;;;;;;10.86;80.75;101552.92;1741462;82;22588;-82
2022/11/12 13:14:51;;;;;;;23.27;15.90;;;;;;;10.61;81.79;101551.69;1724489;82;21197;-81
2022/11/12 13:18:15;;;;;;;23.90;15.15;;;;;;;10.55;82.00;101550.91;1740548;82;21194;-82
2022/11/12 13:21:40;;;;;;;23.50;16.65;;;;;;;10.38;82.59;101558.83;1739946;82;21197;-81
2022/11/12 13:25:19;;;;;;;27.00;17.95;;;;;;;10.39;82.72;101560.55;1741103;82;21482;-82
2022/11/12 13:28:43;;;;;;;21.57;14.55;;;;;;;10.14;83.73;101564.70;1740364;82;21232;-81
2022/11/12 13:32:38;;;;;;;21.35;14.47;;;;;;;10.07;84.08;101561.30;1739608;82;21752;-81
2022/11/12 13:36:26;;;;;;;20.90;15.32;;;;;;;10.10;83.74;101561.03;1740564;82;21237;-81
2022/11/12 13:39:44;;;;;;;22.07;15.65;;;;;;;10.12;83.52;101555.80;1720805;82;21819;-82
2022/11/12 13:42:54;;;;;;;;;;;;;;;9.98;83.48;101550.75;1735802;83;21261;-83
2022/11/12 13:46:29;;;;;;;23.12;16.25;;;;;;;10.14;83.33;101540.60;1733239;83;20229;-82
2022/11/12 13:49:53;;;;;;;25.77;17.48;;;;;;;10.05;83.66;101534.63;1731708;83;21217;-82
2022/11/12 13:53:17;;;;;;;26.10;18.05;;;;;;;10.27;83.35;101536.25;1733121;83;22478;-81
2022/11/12 13:56:42;;;;;;;24.70;17.52;;;;;;;10.19;83.64;101532.83;1733257;83;21194;-81
2022/11/12 14:00:32;;;;;;;24.00;16.60;;;;;;;9.89;84.55;101513.34;1733816;83;21201;-81
2022/11/12 14:03:57;;;;;;;24.72;17.00;;;;;;;9.93;84.62;101498.39;1734015;83;21173;-82
2022/11/12 14:07:44;;;;;;;22.55;17.10;;;;;;;10.02;83.91;101480.23;1734606;83;21225;-82
2022/11/12 14:11:30;;;;;;;27.20;17.65;;;;;;;9.78;84.39;101488.86;1734466;83;21193;-82
2022/11/12 14:15:11;;;;;;;28.38;19.80;;;;;;;9.57;85.01;101498.55;1732721;82;21261;-82
2022/11/12 14:19:06;;;;;;;;;;;;;;;9.36;86.21;101508.19;1736261;83;21185;-82
2022/11/12 14:22:29;;;;;;;27.17;17.60;;;;;;;9.35;86.86;101501.86;1732851;83;20207;-83
2022/11/12 14:26:01;;;;;;;31.00;21.17;;;;;;;9.52;85.79;101499.48;1733875;83;21487;-82
2022/11/12 14:29:24;;;;;;;34.67;23.02;;;;;;;9.59;84.82;101495.16;1732943;83;21221;-82
2022/11/12 14:32:58;;;;;;;28.12;18.85;;;;;;;9.53;84.91;101497.09;1732448;82;21269;-82
2022/11/12 14:36:23;;;;;;;28.17;19.70;;;;;;;9.22;85.71;101499.88;1737384;82;21224;-82
2022/11/12 14:39:48;;;;;;;34.90;19.10;;;;;;;8.88;86.71;101497.45;1738647;82;21248;-82
2022/11/12 14:43:11;;;;;;;35.80;20.37;;;;;;;8.74;87.56;101505.99;1738460;82;21236;-82
2022/11/12 14:46:54;;;;;;;31.62;19.90;;;;;;;8.89;87.44;101505.13;1738375;82;21181;-82
2022/11/12 14:50:31;;;;;;;37.05;21.42;;;;;;;8.85;87.57;101511.38;1738462;82;21782;-82
2022/11/12 14:54:03;;;;;;;34.53;23.02;;;;;;;8.78;88.63;101501.14;1739720;82;21189;-81
2022/11/12 14:57:35;;;;;;;36.48;21.30;;;;;;;8.87;88.39;101508.00;1740334;82;21233;-81
2022/11/12 15:01:00;;;;;;;39.85;25.45;;;;;;;8.76;88.44;101504.02;1739730;82;21724;-82
2022/11/12 15:04:28;;;;;;;38.00;23.18;;;;;;;8.79;88.18;101507.81;1739716;82;21799;-82
2022/11/12 15:08:10;;;;;;;38.67;24.63;;;;;;;8.91;87.09;101490.37;1738986;82;21216;-82
2022/11/12 15:11:39;;;;;;;36.13;23.40;;;;;;;8.52;88.14;101489.81;1738437;82;21268;-82
2022/11/12 15:15:17;;;;;;;43.73;24.87;;;;;;;8.44;87.97;101483.66;1739687;82;21831;-82
2022/11/12 15:18:41;;;;;;;43.08;26.23;;;;;;;8.37;88.10;101488.76;1739748;82;21213;-82
2022/11/12 15:22:08;;;;;;;43.83;27.87;;;;;;;8.33;87.94;101487.30;1738323;82;21208;-81
2022/11/12 15:25:34;;;;;;;44.33;26.80;;;;;;;7.87;89.15;101480.34;1739648;82;21209;-82
2022/11/12 15:29:23;;;;;;;42.20;26.90;;;;;;;7.89;89.45;101478.84;1739620;82;21233;-81
2022/11/12 15:32:48;;;;;;;47.53;29.35;;;;;;;7.94;88.94;101476.58;1739827;82;21197;-82
2022/11/12 15:36:11;;;;;;;49.80;32.03;;;;;;;7.93;89.16;101464.83;1738168;82;21753;-82
2022/11/12 15:39:35;;;;;;;44.67;28.83;;;;;;;7.92;89.09;101452.20;1739184;82;21189;-82
2022/11/12 15:42:58;;;;;;;52.95;30.97;;;;;;;7.73;89.93;101447.97;1772038;81;21426;-83
2022/11/12 15:46:15;;;;;;;51.88;32.05;;;;;;;7.76;89.96;101440.87;1774809;81;21232;-83
2022/11/12 15:49:26;;;;;;;49.55;31.25;;;;;;;7.76;89.99;101427.75;1774201;81;21240;-82
2022/11/12 15:52:49;;;;;;;61.98;36.45;;;;;;;7.77;90.11;101425.42;1774978;81;21181;-82
2022/11/12 15:56:13;;;;;;;58.65;37.23;;;;;;;7.66;90.71;101420.87;1774690;81;21169;-83
2022/11/12 15:59:37;;;;;;;57.85;35.58;;;;;;;7.59;91.26;101420.53;1774482;81;21209;-82
2022/11/12 16:03:07;;;;;;;73.07;39.63;;;;;;;7.59;91.49;101407.42;1774908;81;21193;-83
2022/11/12 16:06:31;;;;;;;72.32;42.33;;;;;;;7.48;92.15;101403.37;1773851;81;21240;-82
2022/11/12 16:09:54;;;;;;;69.40;40.60;;;;;;;7.43;92.81;101405.11;1774052;81;21783;-82
2022/11/12 16:13:29;;;;;;;67.30;38.50;;;;;;;7.42;93.20;101397.95;1743105;81;21196;-82